Terminal Aerodrome Forecast
Issued by NWS

Home | Current Version | Previous Version | Text Only | Print | Product List | Glossary On
Versions: 1 2 3 4 5 6 7 8 9 10 11 12 13 14 15 16
000
FTUS46 KSEW 212320
TAFOLM
TAF
KOLM 212320Z 2200/2224 01004KT P6SM BKN040
     FM220200 35006KT P6SM SCT040 SCT250
     FM220500 VRB03KT P6SM SKC
     FM221300 VRB03KT P6SM BKN025
     FM221900 02006KT P6SM SCT030=

USA.gov is the U.S. government's official web portal to all federal, state and local government web resources and services.